Hatsu Smart — MLBD9 — position and weather

sailwx.info

Track history (hours):
 
Tides and Currents Weather Stations Pressure Air Temp Water Temp Dewpoint Dewpoint Depression Visibility Wind Speed Wind Dir Waves Ship Positions

Hatsu Smart

Last reported at 2018-Jul-15 21:00 UTC. Time now 2018-Jul-16 20:10 UTC.
Position N 44°18' W 142°12'.

Type: Cargo ship. MMSI: 235010450.

Wind from 320 at 14 knots

Barometer 1032.0 mb
Air temperature 15.0 ° C
Visibility: greater than 5.4 NM
Water temperature 15.0 ° C

Date/timePositionNaut miles runAvg speedWind from/ knotsBaromVisibWave heightAir tempDewpointWater temp
2018-Jul-15 21:00N 44°18' W 142°12'7117.8 320 / 141032.0 5.4 15.0 15.0
2018-Jul-15 17:00N 43°48' W 140°42'57715.2 360 / 141032.0 5.4 13.0 16.0
2018-Jul-14 03:02N 39°04' W 129°32'015.6
2018-Jul-14 03:00N 39°04' W 129°32'815.0
2018-Jul-14 02:30N 38°60' W 129°24'815.0
2018-Jul-14 02:00N 38°55' W 129°16'815.1
2018-Jul-14 01:29N 38°51' W 129°07'815.1
2018-Jul-14 00:56N 38°46' W 128°58'615.1
2018-Jul-14 00:30N 38°43' W 128°52'15415.1
2018-Jul-13 14:19N 38°09' W 125°40'1316.2
2018-Jul-13 13:30N 38°09' W 125°23'816.0
2018-Jul-13 12:59N 38°09' W 125°13'1015.3
2018-Jul-13 12:21N 38°09' W 125°01'515.0
2018-Jul-13 12:00N 38°09' W 124°54'815.2
2018-Jul-13 11:30N 38°09' W 124°44'815.4
2018-Jul-13 11:00N 38°09' W 124°34'815.4
2018-Jul-13 10:30N 38°09' W 124°25'815.8
2018-Jul-13 10:00N 38°09' W 124°14'815.9
2018-Jul-13 09:29N 38°09' W 124°04'815.6
2018-Jul-13 09:00N 38°09' W 123°55'815.4
2018-Jul-13 08:30N 38°09' W 123°45'815.2
2018-Jul-13 08:00N 38°09' W 123°35'714.8
2018-Jul-13 07:30N 38°09' W 123°26'510.5
2018-Jul-13 07:01N 38°08' W 123°19'5 9.6
2018-Jul-13 06:31N 38°05' W 123°15'5 9.4
2018-Jul-13 06:00N 38°01' W 123°11'5 9.2
2018-Jul-13 05:30N 37°58' W 123°07'5 9.5
2018-Jul-13 05:00N 37°56' W 123°02'5 9.4
2018-Jul-13 04:30N 37°53' W 122°56'5 9.4
2018-Jul-13 04:00N 37°51' W 122°51'5 9.3
2018-Jul-13 03:30N 37°49' W 122°46'5 9.6
2018-Jul-13 03:00N 37°46' W 122°41'510.1
2018-Jul-13 02:30N 37°47' W 122°35'611.7
2018-Jul-13 02:00N 37°50' W 122°28'4 9.0
2018-Jul-13 01:30N 37°48' W 122°23'2 3.4
2018-Jul-13 01:01N 37°48' W 122°20'0 0.0
2018-Jul-13 00:29N 37°48' W 122°20'0 0.0
2018-Jul-12 23:59N 37°48' W 122°20'0 0.0
2018-Jul-12 23:29N 37°48' W 122°20'0 0.0
2018-Jul-12 22:59N 37°48' W 122°20'0 0.0
2018-Jul-12 22:29N 37°48' W 122°20'0 0.0
2018-Jul-12 21:59N 37°48' W 122°20'0 0.0
2018-Jul-12 21:29N 37°48' W 122°20'0 0.0
2018-Jul-12 20:59N 37°48' W 122°20'0 0.0
2018-Jul-12 20:29N 37°48' W 122°20'0 0.0
2018-Jul-12 19:59N 37°48' W 122°20'0 0.0
2018-Jul-12 19:29N 37°48' W 122°20'0 0.0
2018-Jul-12 18:59N 37°48' W 122°20'0 0.0
2018-Jul-12 18:29N 37°48' W 122°20'0 0.0
2018-Jul-12 17:59N 37°48' W 122°20'0 0.0
2018-Jul-12 17:29N 37°48' W 122°20'0 0.0
2018-Jul-12 16:59N 37°48' W 122°20'0 0.0
2018-Jul-12 16:29N 37°48' W 122°20'0 0.0
2018-Jul-12 15:59N 37°48' W 122°20'0 0.0
2018-Jul-12 15:29N 37°48' W 122°20'0 0.0
2018-Jul-12 14:59N 37°48' W 122°20'0 0.0
2018-Jul-12 14:29N 37°48' W 122°20'0 0.0
2018-Jul-12 13:59N 37°48' W 122°20'0 0.0
2018-Jul-12 13:29N 37°48' W 122°20'0 0.0
2018-Jul-12 12:59N 37°48' W 122°20'0 0.0
2018-Jul-12 12:29N 37°48' W 122°20'0 0.0
2018-Jul-12 11:59N 37°48' W 122°20'0 0.0
2018-Jul-12 11:29N 37°48' W 122°20'0 0.0
2018-Jul-12 10:59N 37°48' W 122°20'0 0.0
2018-Jul-12 10:29N 37°48' W 122°20'0 0.0
2018-Jul-12 09:59N 37°48' W 122°20'0 0.0
2018-Jul-12 09:29N 37°48' W 122°20'0 0.0
2018-Jul-12 08:59N 37°48' W 122°20'0 0.0
2018-Jul-12 08:29N 37°48' W 122°20'0 0.0
2018-Jul-12 07:59N 37°48' W 122°20'0 0.0
2018-Jul-12 07:29N 37°48' W 122°20'0 0.0
2018-Jul-12 06:59N 37°48' W 122°20'0 0.0
2018-Jul-12 06:29N 37°48' W 122°20'0 0.0
2018-Jul-12 05:59N 37°48' W 122°20'0 0.0
2018-Jul-12 05:29N 37°48' W 122°20'0 0.0
2018-Jul-12 04:56N 37°48' W 122°20'0 0.0
2018-Jul-12 04:26N 37°48' W 122°20'0 0.0
2018-Jul-12 03:59N 37°48' W 122°20'0 0.0
2018-Jul-12 03:29N 37°48' W 122°20'0 0.0
2018-Jul-12 02:59N 37°48' W 122°20'0 0.0
2018-Jul-12 02:29N 37°48' W 122°20'0 0.0
2018-Jul-12 01:59N 37°48' W 122°20'0 0.0
2018-Jul-12 01:26N 37°48' W 122°20'0 0.0
2018-Jul-12 00:59N 37°48' W 122°20'0 0.1
2018-Jul-12 00:29N 37°48' W 122°20'0 0.1
2018-Jul-11 23:59N 37°48' W 122°20'0 0.0
2018-Jul-11 23:29N 37°48' W 122°20'0 0.0
2018-Jul-11 23:00N 37°48' W 122°20'1 1.6
2018-Jul-11 22:30N 37°49' W 122°20'2 4.0
2018-Jul-11 22:00N 37°48' W 122°22'611.1
2018-Jul-11 21:30N 37°49' W 122°29'713.1
2018-Jul-11 21:00N 37°46' W 122°36'4 8.4
2018-Jul-11 20:30N 37°43' W 122°40'3 6.8
2018-Jul-11 20:00N 37°40' W 122°40'5 9.0
2018-Jul-11 19:30N 37°35' W 122°40'5 9.1
2018-Jul-11 19:00N 37°31' W 122°40'4 8.7
2018-Jul-11 18:30N 37°26' W 122°40'4 8.8
2018-Jul-11 18:00N 37°22' W 122°40'4 8.7
2018-Jul-11 17:30N 37°18' W 122°40'714.7
2018-Jul-11 17:01N 37°10' W 122°39'815.7
2018-Jul-11 16:30N 37°02' W 122°39'815.4
2018-Jul-11 16:01N 36°55' W 122°38'815.2
2018-Jul-11 15:31N 36°47' W 122°38'815.2
2018-Jul-11 15:01N 36°40' W 122°38'714.9
2018-Jul-11 14:30N 36°33' W 122°34'815.3
2018-Jul-11 14:00N 36°26' W 122°29'815.7
2018-Jul-11 13:31N 36°19' W 122°24'815.6
2018-Jul-11 13:00N 36°13' W 122°19'715.0
2018-Jul-11 12:30N 36°06' W 122°14'714.9
2018-Jul-11 12:00N 36°00' W 122°09'714.7
2018-Jul-11 11:30N 35°54' W 122°05'714.8
2018-Jul-11 11:00N 35°47' W 122°00'714.5
2018-Jul-11 10:30N 35°41' W 121°55'714.6
2018-Jul-11 10:01N 35°35' W 121°50'714.6
2018-Jul-11 09:31N 35°29' W 121°45'714.5
2018-Jul-11 09:01N 35°23' W 121°40'714.8
2018-Jul-11 08:31N 35°17' W 121°36'815.1
2018-Jul-11 08:00N 35°10' W 121°31'714.8
2018-Jul-11 07:31N 35°05' W 121°25'714.6
2018-Jul-11 07:01N 34°59' W 121°20'815.2
2018-Jul-11 06:31N 34°53' W 121°15'815.2
2018-Jul-11 06:00N 34°46' W 121°09'815.5
2018-Jul-11 05:31N 34°40' W 121°04'815.7
2018-Jul-11 05:01N 34°34' W 120°59'714.6
2018-Jul-11 04:30N 34°28' W 120°54'5 9.5
2018-Jul-11 03:59N 34°25' W 120°48'5 9.6
2018-Jul-11 03:30N 34°24' W 120°43'4 7.8
2018-Jul-11 02:57N 34°23' W 120°38'4 8.4
2018-Jul-11 02:29N 34°22' W 120°33'4 9.3
2018-Jul-11 02:00N 34°21' W 120°28'5 9.4
2018-Jul-11 01:29N 34°19' W 120°22'5 9.9
2018-Jul-11 01:00N 34°18' W 120°17'5 9.9
2018-Jul-11 00:30N 34°17' W 120°11'5 9.7
2018-Jul-10 23:59N 34°15' W 120°05'5 9.7
2018-Jul-10 23:30N 34°14' W 119°60'5 9.6
2018-Jul-10 23:00N 34°13' W 119°54'5 9.6
2018-Jul-10 22:30N 34°12' W 119°48'5 9.7
2018-Jul-10 22:00N 34°11' W 119°43'5 9.8
2018-Jul-10 21:30N 34°09' W 119°37'510.1
2018-Jul-10 21:00N 34°08' W 119°31'5 9.6
2018-Jul-10 20:30N 34°07' W 119°26'5 9.7
2018-Jul-10 20:00N 34°05' W 119°20'5 9.8
2018-Jul-10 19:30N 34°04' W 119°14'5 9.8
2018-Jul-10 19:00N 34°01' W 119°09'5 9.6
2018-Jul-10 18:30N 33°59' W 119°04'5 9.7
2018-Jul-10 18:00N 33°57' W 118°59'5 9.9
2018-Jul-10 17:31N 33°54' W 118°54'5 9.9
2018-Jul-10 17:00N 33°52' W 118°49'5 9.7
2018-Jul-10 16:30N 33°49' W 118°44'5 9.6
2018-Jul-10 16:00N 33°47' W 118°39'5 9.5
2018-Jul-10 15:30N 33°44' W 118°34'5 9.7
2018-Jul-10 15:00N 33°42' W 118°29'5 9.5
2018-Jul-10 14:30N 33°40' W 118°24'5 9.5
2018-Jul-10 14:00N 33°38' W 118°18'4 8.8
2018-Jul-10 13:30N 33°41' W 118°14'3 6.7
2018-Jul-10 13:00N 33°44' W 118°17'1 1.3
2018-Jul-10 12:30N 33°45' W 118°16'0 0.0
2018-Jul-10 11:59N 33°45' W 118°16'0 0.0
2018-Jul-10 11:29N 33°45' W 118°16'0 0.0
2018-Jul-10 10:59N 33°45' W 118°16'0 0.0
2018-Jul-10 10:29N 33°45' W 118°16'0 0.0
2018-Jul-10 09:59N 33°45' W 118°16'0 0.0
2018-Jul-10 09:29N 33°45' W 118°16'0 0.0
2018-Jul-10 08:59N 33°45' W 118°16'0 0.0
2018-Jul-10 08:29N 33°45' W 118°16'0 0.0
2018-Jul-10 07:59N 33°45' W 118°16'0 0.0
2018-Jul-10 07:29N 33°45' W 118°16'0 0.0
2018-Jul-10 06:59N 33°45' W 118°16'0 0.0
2018-Jul-10 06:29N 33°45' W 118°16'0 0.0
2018-Jul-10 05:59N 33°45' W 118°16'0 0.0
2018-Jul-10 05:29N 33°45' W 118°16'0 0.0
2018-Jul-10 04:59N 33°45' W 118°16'0 0.0
2018-Jul-10 04:29N 33°45' W 118°16'0 0.0
2018-Jul-10 03:59N 33°45' W 118°16'0 0.0
2018-Jul-10 03:29N 33°45' W 118°16'0 0.0
2018-Jul-10 02:59N 33°45' W 118°16'0 0.0
2018-Jul-10 02:29N 33°45' W 118°16'0 0.0
2018-Jul-10 01:59N 33°45' W 118°16'0 0.0
2018-Jul-10 01:29N 33°45' W 118°16'0 0.0
2018-Jul-10 00:59N 33°45' W 118°16'0 0.0
2018-Jul-10 00:29N 33°45' W 118°16'0 0.0
2018-Jul-09 23:59N 33°45' W 118°16'0 0.0
2018-Jul-09 23:29N 33°45' W 118°16'0 0.0
2018-Jul-09 22:59N 33°45' W 118°16'0 0.0
2018-Jul-09 22:29N 33°45' W 118°16'0 0.0
2018-Jul-09 21:59N 33°45' W 118°16'0 0.0
2018-Jul-09 21:29N 33°45' W 118°16'0 0.0
2018-Jul-09 20:59N 33°45' W 118°16'0 0.0
2018-Jul-09 20:29N 33°45' W 118°16'0 0.0
2018-Jul-09 19:59N 33°45' W 118°16'0 0.0
2018-Jul-09 19:29N 33°45' W 118°16'0 0.0
2018-Jul-09 18:59N 33°45' W 118°16'0 0.0
2018-Jul-09 18:29N 33°45' W 118°16'0 0.0
2018-Jul-09 17:59N 33°45' W 118°16'0 0.0
2018-Jul-09 17:29N 33°45' W 118°16'0 0.0
2018-Jul-09 16:59N 33°45' W 118°16'0 0.0
2018-Jul-09 16:29N 33°45' W 118°16'0 0.0
2018-Jul-09 15:59N 33°45' W 118°16'0 0.0
2018-Jul-09 15:29N 33°45' W 118°16'0 0.0
2018-Jul-09 14:59N 33°45' W 118°16'0 0.0
2018-Jul-09 14:29N 33°45' W 118°16'0 0.0
2018-Jul-09 13:59N 33°45' W 118°16'0 0.0
2018-Jul-09 13:29N 33°45' W 118°16'0 0.0
2018-Jul-09 12:59N 33°45' W 118°16'0 0.0
2018-Jul-09 12:29N 33°45' W 118°16'0 0.0
2018-Jul-09 11:59N 33°45' W 118°16'0 0.0
2018-Jul-09 11:29N 33°45' W 118°16'0 0.0
2018-Jul-09 10:59N 33°45' W 118°16'0 0.0
2018-Jul-09 10:29N 33°45' W 118°16'0 0.0
2018-Jul-09 09:59N 33°45' W 118°16'0 0.0
2018-Jul-09 09:29N 33°45' W 118°16'0 0.0
2018-Jul-09 08:59N 33°45' W 118°16'0 0.0
2018-Jul-09 08:29N 33°45' W 118°16'0 0.0
2018-Jul-09 07:59N 33°45' W 118°16'0 0.0
2018-Jul-09 07:29N 33°45' W 118°16'0 0.0
2018-Jul-09 06:59N 33°45' W 118°16'0 0.0
2018-Jul-09 06:29N 33°45' W 118°16'0 0.0
2018-Jul-09 05:59N 33°45' W 118°16'0 0.0
2018-Jul-09 05:29N 33°45' W 118°16'0 0.0
2018-Jul-09 04:59N 33°45' W 118°16'0 0.0
2018-Jul-09 04:29N 33°45' W 118°16'0 0.0
2018-Jul-09 03:59N 33°45' W 118°16'0 0.0
2018-Jul-09 03:29N 33°45' W 118°16'0 0.0
2018-Jul-09 02:59N 33°45' W 118°16'0 0.0
2018-Jul-09 02:29N 33°45' W 118°16'0 0.1
2018-Jul-09 01:59N 33°45' W 118°16'0 0.1
2018-Jul-09 01:29N 33°45' W 118°16'0 0.0
2018-Jul-09 00:59N 33°45' W 118°16'0 0.0
2018-Jul-09 00:29N 33°45' W 118°16'0 0.0
2018-Jul-08 23:59N 33°45' W 118°16'0 0.0
2018-Jul-08 23:29N 33°45' W 118°16'0 0.0
2018-Jul-08 22:59N 33°45' W 118°16'0 0.0
2018-Jul-08 22:29N 33°45' W 118°16'0 0.0
2018-Jul-08 21:59N 33°45' W 118°16'0 0.0
2018-Jul-08 21:29N 33°45' W 118°16'0 0.0
2018-Jul-08 20:59N 33°45' W 118°16'0 0.0
2018-Jul-08 20:29N 33°45' W 118°16'0 0.0
2018-Jul-08 19:59N 33°45' W 118°16'0 0.0
2018-Jul-08 19:29N 33°45' W 118°16'0 0.0
2018-Jul-08 18:59N 33°45' W 118°16'0 0.0
2018-Jul-08 18:29N 33°45' W 118°16'0 0.0
2018-Jul-08 17:59N 33°45' W 118°16'0 0.0
2018-Jul-08 17:29N 33°45' W 118°16'0 0.0
2018-Jul-08 16:59N 33°45' W 118°16'0 0.0
2018-Jul-08 16:29N 33°45' W 118°16'0 0.0
2018-Jul-08 15:56N 33°45' W 118°16'0 0.0
2018-Jul-08 15:29N 33°45' W 118°16'0 0.0
2018-Jul-08 14:59N 33°45' W 118°16'0 0.0
2018-Jul-08 14:29N 33°45' W 118°16'0 0.0
2018-Jul-08 13:59N 33°45' W 118°16'0 0.0
2018-Jul-08 13:29N 33°45' W 118°16'0 0.0
2018-Jul-08 12:59N 33°45' W 118°16'0 0.0
2018-Jul-08 12:30N 33°45' W 118°16'0 0.6
2018-Jul-08 12:00N 33°45' W 118°16'2 4.4
2018-Jul-08 11:30N 33°43' W 118°15'3 6.3
2018-Jul-08 11:00N 33°40' W 118°14'4 7.5
2018-Jul-08 10:30N 33°36' W 118°15'4 7.4
2018-Jul-08 10:00N 33°36' W 118°19'4 8.3
2018-Jul-08 09:30N 33°36' W 118°24'3 5.8
2018-Jul-08 09:00N 33°36' W 118°28'4 8.8
2018-Jul-08 08:30N 33°36' W 118°33'5 9.0
2018-Jul-08 08:00N 33°36' W 118°39'4 9.1
2018-Jul-08 07:30N 33°36' W 118°44'5 9.2
2018-Jul-08 07:00N 33°36' W 118°50'5 9.1
2018-Jul-08 06:30N 33°36' W 118°55'5 9.3
2018-Jul-08 06:00N 33°36' W 119°01'5 9.3
2018-Jul-08 05:30N 33°36' W 119°06'5 9.4
2018-Jul-08 05:00N 33°36' W 119°12'5 9.3
2018-Jul-08 04:30N 33°36' W 119°18'5 9.4
2018-Jul-08 04:00N 33°37' W 119°23'4 9.0
2018-Jul-08 03:30N 33°37' W 119°28'5 9.2
2018-Jul-08 02:58N 33°37' W 119°35'4 8.7
2018-Jul-08 02:30N 33°36' W 119°39'4 8.6
2018-Jul-08 02:00N 33°37' W 119°45'4 9.1
2018-Jul-08 01:30N 33°37' W 119°50'5 9.2
2018-Jul-08 01:00N 33°37' W 119°55'4 9.0
2018-Jul-08 00:30N 33°37' W 120°01'5 9.2
2018-Jul-08 00:00N 33°37' W 120°06'4 9.0
2018-Jul-07 23:30N 33°37' W 120°12'5 9.1
2018-Jul-07 23:00N 33°37' W 120°17'5 9.2
2018-Jul-07 22:30N 33°37' W 120°23'4 9.0
2018-Jul-07 22:00N 33°37' W 120°28'5 9.0
2018-Jul-07 21:30N 33°37' W 120°34'5 9.3
2018-Jul-07 21:00N 33°37' W 120°39'5 9.1
2018-Jul-07 20:30N 33°37' W 120°45'5 9.3
2018-Jul-07 20:00N 33°37' W 120°50'5 9.1
2018-Jul-07 19:30N 33°38' W 120°56'4 8.8
2018-Jul-07 19:00N 33°38' W 121°01'612.9
2018-Jul-07 18:30N 33°37' W 121°09'815.2
2018-Jul-07 18:01N 33°37' W 121°18'815.3
2018-Jul-07 17:30N 33°37' W 121°27'815.9
2018-Jul-07 17:00N 33°37' W 121°36'815.7
2018-Jul-07 16:31N 33°37' W 121°46'815.6
2018-Jul-07 16:01N 33°38' W 121°55'815.5
2018-Jul-07 15:31N 33°37' W 122°05'815.6
2018-Jul-07 15:01N 33°37' W 122°14'815.5
2018-Jul-07 14:31N 33°37' W 122°23'815.7
2018-Jul-07 14:00N 33°37' W 122°33'815.5
2018-Jul-07 13:31N 33°37' W 122°42'815.5
2018-Jul-07 13:00N 33°37' W 122°51'815.6
2018-Jul-07 12:31N 33°37' W 123°01'815.5
2018-Jul-07 12:00N 33°37' W 123°10'815.4
2018-Jul-07 11:31N 33°37' W 123°19'815.1
2018-Jul-07 11:00N 33°37' W 123°28'815.1
2018-Jul-07 10:31N 33°37' W 123°37'815.3
2018-Jul-07 10:01N 33°37' W 123°47'815.5
2018-Jul-07 09:30N 33°37' W 123°56'815.4
2018-Jul-07 09:01N 33°37' W 124°05'815.2
2018-Jul-07 08:30N 33°37' W 124°14'815.1
2018-Jul-07 08:00N 33°37' W 124°24'815.9
2018-Jul-07 07:30N 33°40' W 124°33'918.1
2018-Jul-07 07:01N 33°44' W 124°42'918.2
2018-Jul-07 06:30N 33°48' W 124°52'918.1
2018-Jul-07 06:01N 33°52' W 125°02'918.5
2018-Jul-07 05:30N 33°56' W 125°12'918.5
2018-Jul-07 05:00N 34°00' W 125°22'1118.6
2018-Jul-07 04:23N 34°05' W 125°34'718.8
2018-Jul-07 04:00N 34°09' W 125°42'918.5
2018-Jul-07 03:30N 34°13' W 125°52'1018.4
2018-Jul-07 02:59N 34°17' W 126°03'1318.6
2018-Jul-07 02:16N 34°23' W 126°17'518.7
2018-Jul-07 02:00N 34°25' W 126°23'918.7
2018-Jul-07 01:30N 34°29' W 126°33'918.4
2018-Jul-07 01:00N 34°33' W 126°43'918.4
2018-Jul-07 00:30N 34°37' W 126°53'918.4
2018-Jul-07 00:00N 34°40' W 127°03'1118.7
2018-Jul-06 23:27N 34°45' W 127°15'3418.4
2018-Jul-06 21:36N 34°59' W 127°52'518.5
2018-Jul-06 21:19N 35°02' W 127°58'2418.0
2018-Jul-06 20:00N 35°12' W 128°24'29418.4 090 / 71027.1 5.4 18.0 18.0
2018-Jul-06 04:00N 37°06' W 134°00'13719.6 300 / 81025.0 5.4 17.0 18.0
2018-Jul-05 21:00N 37°54' W 136°42'   340 / 181024.0 5.4 17.0 19.0
Track history (hours):
 
Tides and Currents Weather Stations Pressure Air Temp Water Temp Dewpoint Dewpoint Depression Visibility Wind Speed Wind Dir Waves Ship Positions

Hatsu Smart

Last reported at 2018-Jul-15 21:00 UTC. Time now 2018-Jul-16 20:10 UTC.
Position N 44°18' W 142°12'.

Type: Cargo ship. MMSI: 235010450.

Wind from 320 at 14 knots

Barometer 1032.0 mb
Air temperature 15.0 ° C
Visibility: greater than 5.4 NM
Water temperature 15.0 ° C

Date/timePositionNaut miles runAvg speedWind from/ knotsBaromVisibWave heightAir tempDewpointWater temp
2018-Jul-15 21:00N 44°18' W 142°12'7117.8 320 / 141032.0 5.4 15.0 15.0
2018-Jul-15 17:00N 43°48' W 140°42'57715.2 360 / 141032.0 5.4 13.0 16.0
2018-Jul-14 03:02N 39°04' W 129°32'015.6
2018-Jul-14 03:00N 39°04' W 129°32'815.0
2018-Jul-14 02:30N 38°60' W 129°24'815.0
2018-Jul-14 02:00N 38°55' W 129°16'815.1
2018-Jul-14 01:29N 38°51' W 129°07'815.1
2018-Jul-14 00:56N 38°46' W 128°58'615.1
2018-Jul-14 00:30N 38°43' W 128°52'15415.1
2018-Jul-13 14:19N 38°09' W 125°40'1316.2
2018-Jul-13 13:30N 38°09' W 125°23'816.0
2018-Jul-13 12:59N 38°09' W 125°13'1015.3
2018-Jul-13 12:21N 38°09' W 125°01'515.0
2018-Jul-13 12:00N 38°09' W 124°54'815.2
2018-Jul-13 11:30N 38°09' W 124°44'815.4
2018-Jul-13 11:00N 38°09' W 124°34'815.4
2018-Jul-13 10:30N 38°09' W 124°25'815.8
2018-Jul-13 10:00N 38°09' W 124°14'815.9
2018-Jul-13 09:29N 38°09' W 124°04'815.6
2018-Jul-13 09:00N 38°09' W 123°55'815.4
2018-Jul-13 08:30N 38°09' W 123°45'815.2
2018-Jul-13 08:00N 38°09' W 123°35'714.8
2018-Jul-13 07:30N 38°09' W 123°26'510.5
2018-Jul-13 07:01N 38°08' W 123°19'5 9.6
2018-Jul-13 06:31N 38°05' W 123°15'5 9.4
2018-Jul-13 06:00N 38°01' W 123°11'5 9.2
2018-Jul-13 05:30N 37°58' W 123°07'5 9.5
2018-Jul-13 05:00N 37°56' W 123°02'5 9.4
2018-Jul-13 04:30N 37°53' W 122°56'5 9.4
2018-Jul-13 04:00N 37°51' W 122°51'5 9.3
2018-Jul-13 03:30N 37°49' W 122°46'5 9.6
2018-Jul-13 03:00N 37°46' W 122°41'510.1
2018-Jul-13 02:30N 37°47' W 122°35'611.7
2018-Jul-13 02:00N 37°50' W 122°28'4 9.0
2018-Jul-13 01:30N 37°48' W 122°23'2 3.4
2018-Jul-13 01:01N 37°48' W 122°20'0 0.0
2018-Jul-13 00:29N 37°48' W 122°20'0 0.0
2018-Jul-12 23:59N 37°48' W 122°20'0 0.0
2018-Jul-12 23:29N 37°48' W 122°20'0 0.0
2018-Jul-12 22:59N 37°48' W 122°20'0 0.0
2018-Jul-12 22:29N 37°48' W 122°20'0 0.0
2018-Jul-12 21:59N 37°48' W 122°20'0 0.0
2018-Jul-12 21:29N 37°48' W 122°20'0 0.0
2018-Jul-12 20:59N 37°48' W 122°20'0 0.0
2018-Jul-12 20:29N 37°48' W 122°20'0 0.0
2018-Jul-12 19:59N 37°48' W 122°20'0 0.0
2018-Jul-12 19:29N 37°48' W 122°20'0 0.0
2018-Jul-12 18:59N 37°48' W 122°20'0 0.0
2018-Jul-12 18:29N 37°48' W 122°20'0 0.0
2018-Jul-12 17:59N 37°48' W 122°20'0 0.0
2018-Jul-12 17:29N 37°48' W 122°20'0 0.0
2018-Jul-12 16:59N 37°48' W 122°20'0 0.0
2018-Jul-12 16:29N 37°48' W 122°20'0 0.0
2018-Jul-12 15:59N 37°48' W 122°20'0 0.0
2018-Jul-12 15:29N 37°48' W 122°20'0 0.0
2018-Jul-12 14:59N 37°48' W 122°20'0 0.0
2018-Jul-12 14:29N 37°48' W 122°20'0 0.0
2018-Jul-12 13:59N 37°48' W 122°20'0 0.0
2018-Jul-12 13:29N 37°48' W 122°20'0 0.0
2018-Jul-12 12:59N 37°48' W 122°20'0 0.0
2018-Jul-12 12:29N 37°48' W 122°20'0 0.0
2018-Jul-12 11:59N 37°48' W 122°20'0 0.0
2018-Jul-12 11:29N 37°48' W 122°20'0 0.0
2018-Jul-12 10:59N 37°48' W 122°20'0 0.0
2018-Jul-12 10:29N 37°48' W 122°20'0 0.0
2018-Jul-12 09:59N 37°48' W 122°20'0 0.0
2018-Jul-12 09:29N 37°48' W 122°20'0 0.0
2018-Jul-12 08:59N 37°48' W 122°20'0 0.0
2018-Jul-12 08:29N 37°48' W 122°20'0 0.0
2018-Jul-12 07:59N 37°48' W 122°20'0 0.0
2018-Jul-12 07:29N 37°48' W 122°20'0 0.0
2018-Jul-12 06:59N 37°48' W 122°20'0 0.0
2018-Jul-12 06:29N 37°48' W 122°20'0 0.0
2018-Jul-12 05:59N 37°48' W 122°20'0 0.0
2018-Jul-12 05:29N 37°48' W 122°20'0 0.0
2018-Jul-12 04:56N 37°48' W 122°20'0 0.0
2018-Jul-12 04:26N 37°48' W 122°20'0 0.0
2018-Jul-12 03:59N 37°48' W 122°20'0 0.0
2018-Jul-12 03:29N 37°48' W 122°20'0 0.0
2018-Jul-12 02:59N 37°48' W 122°20'0 0.0
2018-Jul-12 02:29N 37°48' W 122°20'0 0.0
2018-Jul-12 01:59N 37°48' W 122°20'0 0.0
2018-Jul-12 01:26N 37°48' W 122°20'0 0.0
2018-Jul-12 00:59N 37°48' W 122°20'0 0.1
2018-Jul-12 00:29N 37°48' W 122°20'0 0.1
2018-Jul-11 23:59N 37°48' W 122°20'0 0.0
2018-Jul-11 23:29N 37°48' W 122°20'0 0.0
2018-Jul-11 23:00N 37°48' W 122°20'1 1.6
2018-Jul-11 22:30N 37°49' W 122°20'2 4.0
2018-Jul-11 22:00N 37°48' W 122°22'611.1
2018-Jul-11 21:30N 37°49' W 122°29'713.1
2018-Jul-11 21:00N 37°46' W 122°36'4 8.4
2018-Jul-11 20:30N 37°43' W 122°40'3 6.8
2018-Jul-11 20:00N 37°40' W 122°40'5 9.0
2018-Jul-11 19:30N 37°35' W 122°40'5 9.1
2018-Jul-11 19:00N 37°31' W 122°40'4 8.7
2018-Jul-11 18:30N 37°26' W 122°40'4 8.8
2018-Jul-11 18:00N 37°22' W 122°40'4 8.7
2018-Jul-11 17:30N 37°18' W 122°40'714.7
2018-Jul-11 17:01N 37°10' W 122°39'815.7
2018-Jul-11 16:30N 37°02' W 122°39'815.4
2018-Jul-11 16:01N 36°55' W 122°38'815.2
2018-Jul-11 15:31N 36°47' W 122°38'815.2
2018-Jul-11 15:01N 36°40' W 122°38'714.9
2018-Jul-11 14:30N 36°33' W 122°34'815.3
2018-Jul-11 14:00N 36°26' W 122°29'815.7
2018-Jul-11 13:31N 36°19' W 122°24'815.6
2018-Jul-11 13:00N 36°13' W 122°19'715.0
2018-Jul-11 12:30N 36°06' W 122°14'714.9
2018-Jul-11 12:00N 36°00' W 122°09'714.7
2018-Jul-11 11:30N 35°54' W 122°05'714.8
2018-Jul-11 11:00N 35°47' W 122°00'714.5
2018-Jul-11 10:30N 35°41' W 121°55'714.6
2018-Jul-11 10:01N 35°35' W 121°50'714.6
2018-Jul-11 09:31N 35°29' W 121°45'714.5
2018-Jul-11 09:01N 35°23' W 121°40'714.8
2018-Jul-11 08:31N 35°17' W 121°36'815.1
2018-Jul-11 08:00N 35°10' W 121°31'714.8
2018-Jul-11 07:31N 35°05' W 121°25'714.6
2018-Jul-11 07:01N 34°59' W 121°20'815.2
2018-Jul-11 06:31N 34°53' W 121°15'815.2
2018-Jul-11 06:00N 34°46' W 121°09'815.5
2018-Jul-11 05:31N 34°40' W 121°04'815.7
2018-Jul-11 05:01N 34°34' W 120°59'714.6
2018-Jul-11 04:30N 34°28' W 120°54'5 9.5
2018-Jul-11 03:59N 34°25' W 120°48'5 9.6
2018-Jul-11 03:30N 34°24' W 120°43'4 7.8
2018-Jul-11 02:57N 34°23' W 120°38'4 8.4
2018-Jul-11 02:29N 34°22' W 120°33'4 9.3
2018-Jul-11 02:00N 34°21' W 120°28'5 9.4
2018-Jul-11 01:29N 34°19' W 120°22'5 9.9
2018-Jul-11 01:00N 34°18' W 120°17'5 9.9
2018-Jul-11 00:30N 34°17' W 120°11'5 9.7
2018-Jul-10 23:59N 34°15' W 120°05'5 9.7
2018-Jul-10 23:30N 34°14' W 119°60'5 9.6
2018-Jul-10 23:00N 34°13' W 119°54'5 9.6
2018-Jul-10 22:30N 34°12' W 119°48'5 9.7
2018-Jul-10 22:00N 34°11' W 119°43'5 9.8
2018-Jul-10 21:30N 34°09' W 119°37'510.1
2018-Jul-10 21:00N 34°08' W 119°31'5 9.6
2018-Jul-10 20:30N 34°07' W 119°26'5 9.7
2018-Jul-10 20:00N 34°05' W 119°20'5 9.8
2018-Jul-10 19:30N 34°04' W 119°14'5 9.8
2018-Jul-10 19:00N 34°01' W 119°09'5 9.6
2018-Jul-10 18:30N 33°59' W 119°04'5 9.7
2018-Jul-10 18:00N 33°57' W 118°59'5 9.9
2018-Jul-10 17:31N 33°54' W 118°54'5 9.9
2018-Jul-10 17:00N 33°52' W 118°49'5 9.7
2018-Jul-10 16:30N 33°49' W 118°44'5 9.6
2018-Jul-10 16:00N 33°47' W 118°39'5 9.5
2018-Jul-10 15:30N 33°44' W 118°34'5 9.7
2018-Jul-10 15:00N 33°42' W 118°29'5 9.5
2018-Jul-10 14:30N 33°40' W 118°24'5 9.5
2018-Jul-10 14:00N 33°38' W 118°18'4 8.8
2018-Jul-10 13:30N 33°41' W 118°14'3 6.7
2018-Jul-10 13:00N 33°44' W 118°17'1 1.3
2018-Jul-10 12:30N 33°45' W 118°16'0 0.0
2018-Jul-10 11:59N 33°45' W 118°16'0 0.0
2018-Jul-10 11:29N 33°45' W 118°16'0 0.0
2018-Jul-10 10:59N 33°45' W 118°16'0 0.0
2018-Jul-10 10:29N 33°45' W 118°16'0 0.0
2018-Jul-10 09:59N 33°45' W 118°16'0 0.0
2018-Jul-10 09:29N 33°45' W 118°16'0 0.0
2018-Jul-10 08:59N 33°45' W 118°16'0 0.0
2018-Jul-10 08:29N 33°45' W 118°16'0 0.0
2018-Jul-10 07:59N 33°45' W 118°16'0 0.0
2018-Jul-10 07:29N 33°45' W 118°16'0 0.0
2018-Jul-10 06:59N 33°45' W 118°16'0 0.0
2018-Jul-10 06:29N 33°45' W 118°16'0 0.0
2018-Jul-10 05:59N 33°45' W 118°16'0 0.0
2018-Jul-10 05:29N 33°45' W 118°16'0 0.0
2018-Jul-10 04:59N 33°45' W 118°16'0 0.0
2018-Jul-10 04:29N 33°45' W 118°16'0 0.0
2018-Jul-10 03:59N 33°45' W 118°16'0 0.0
2018-Jul-10 03:29N 33°45' W 118°16'0 0.0
2018-Jul-10 02:59N 33°45' W 118°16'0 0.0
2018-Jul-10 02:29N 33°45' W 118°16'0 0.0
2018-Jul-10 01:59N 33°45' W 118°16'0 0.0
2018-Jul-10 01:29N 33°45' W 118°16'0 0.0
2018-Jul-10 00:59N 33°45' W 118°16'0 0.0
2018-Jul-10 00:29N 33°45' W 118°16'0 0.0
2018-Jul-09 23:59N 33°45' W 118°16'0 0.0
2018-Jul-09 23:29N 33°45' W 118°16'0 0.0
2018-Jul-09 22:59N 33°45' W 118°16'0 0.0
2018-Jul-09 22:29N 33°45' W 118°16'0 0.0
2018-Jul-09 21:59N 33°45' W 118°16'0 0.0
2018-Jul-09 21:29N 33°45' W 118°16'0 0.0
2018-Jul-09 20:59N 33°45' W 118°16'0 0.0
2018-Jul-09 20:29N 33°45' W 118°16'0 0.0
2018-Jul-09 19:59N 33°45' W 118°16'0 0.0
2018-Jul-09 19:29N 33°45' W 118°16'0 0.0
2018-Jul-09 18:59N 33°45' W 118°16'0 0.0
2018-Jul-09 18:29N 33°45' W 118°16'0 0.0
2018-Jul-09 17:59N 33°45' W 118°16'0 0.0
2018-Jul-09 17:29N 33°45' W 118°16'0 0.0
2018-Jul-09 16:59N 33°45' W 118°16'0 0.0
2018-Jul-09 16:29N 33°45' W 118°16'0 0.0
2018-Jul-09 15:59N 33°45' W 118°16'0 0.0
2018-Jul-09 15:29N 33°45' W 118°16'0 0.0
2018-Jul-09 14:59N 33°45' W 118°16'0 0.0
2018-Jul-09 14:29N 33°45' W 118°16'0 0.0
2018-Jul-09 13:59N 33°45' W 118°16'0 0.0
2018-Jul-09 13:29N 33°45' W 118°16'0 0.0
2018-Jul-09 12:59N 33°45' W 118°16'0 0.0
2018-Jul-09 12:29N 33°45' W 118°16'0 0.0
2018-Jul-09 11:59N 33°45' W 118°16'0 0.0
2018-Jul-09 11:29N 33°45' W 118°16'0 0.0
2018-Jul-09 10:59N 33°45' W 118°16'0 0.0
2018-Jul-09 10:29N 33°45' W 118°16'0 0.0
2018-Jul-09 09:59N 33°45' W 118°16'0 0.0
2018-Jul-09 09:29N 33°45' W 118°16'0 0.0
2018-Jul-09 08:59N 33°45' W 118°16'0 0.0
2018-Jul-09 08:29N 33°45' W 118°16'0 0.0
2018-Jul-09 07:59N 33°45' W 118°16'0 0.0
2018-Jul-09 07:29N 33°45' W 118°16'0 0.0
2018-Jul-09 06:59N 33°45' W 118°16'0 0.0
2018-Jul-09 06:29N 33°45' W 118°16'0 0.0
2018-Jul-09 05:59N 33°45' W 118°16'0 0.0
2018-Jul-09 05:29N 33°45' W 118°16'0 0.0
2018-Jul-09 04:59N 33°45' W 118°16'0 0.0
2018-Jul-09 04:29N 33°45' W 118°16'0 0.0
2018-Jul-09 03:59N 33°45' W 118°16'0 0.0
2018-Jul-09 03:29N 33°45' W 118°16'0 0.0
2018-Jul-09 02:59N 33°45' W 118°16'0 0.0
2018-Jul-09 02:29N 33°45' W 118°16'0 0.1
2018-Jul-09 01:59N 33°45' W 118°16'0 0.1
2018-Jul-09 01:29N 33°45' W 118°16'0 0.0
2018-Jul-09 00:59N 33°45' W 118°16'0 0.0
2018-Jul-09 00:29N 33°45' W 118°16'0 0.0
2018-Jul-08 23:59N 33°45' W 118°16'0 0.0
2018-Jul-08 23:29N 33°45' W 118°16'0 0.0
2018-Jul-08 22:59N 33°45' W 118°16'0 0.0
2018-Jul-08 22:29N 33°45' W 118°16'0 0.0
2018-Jul-08 21:59N 33°45' W 118°16'0 0.0
2018-Jul-08 21:29N 33°45' W 118°16'0 0.0
2018-Jul-08 20:59N 33°45' W 118°16'0 0.0
2018-Jul-08 20:29N 33°45' W 118°16'0 0.0
2018-Jul-08 19:59N 33°45' W 118°16'0 0.0
2018-Jul-08 19:29N 33°45' W 118°16'0 0.0
2018-Jul-08 18:59N 33°45' W 118°16'0 0.0
2018-Jul-08 18:29N 33°45' W 118°16'0 0.0
2018-Jul-08 17:59N 33°45' W 118°16'0 0.0
2018-Jul-08 17:29N 33°45' W 118°16'0 0.0
2018-Jul-08 16:59N 33°45' W 118°16'0 0.0
2018-Jul-08 16:29N 33°45' W 118°16'0 0.0
2018-Jul-08 15:56N 33°45' W 118°16'0 0.0
2018-Jul-08 15:29N 33°45' W 118°16'0 0.0
2018-Jul-08 14:59N 33°45' W 118°16'0 0.0
2018-Jul-08 14:29N 33°45' W 118°16'0 0.0
2018-Jul-08 13:59N 33°45' W 118°16'0 0.0
2018-Jul-08 13:29N 33°45' W 118°16'0 0.0
2018-Jul-08 12:59N 33°45' W 118°16'0 0.0
2018-Jul-08 12:30N 33°45' W 118°16'0 0.6
2018-Jul-08 12:00N 33°45' W 118°16'2 4.4
2018-Jul-08 11:30N 33°43' W 118°15'3 6.3
2018-Jul-08 11:00N 33°40' W 118°14'4 7.5
2018-Jul-08 10:30N 33°36' W 118°15'4 7.4
2018-Jul-08 10:00N 33°36' W 118°19'4 8.3
2018-Jul-08 09:30N 33°36' W 118°24'3 5.8
2018-Jul-08 09:00N 33°36' W 118°28'4 8.8
2018-Jul-08 08:30N 33°36' W 118°33'5 9.0
2018-Jul-08 08:00N 33°36' W 118°39'4 9.1
2018-Jul-08 07:30N 33°36' W 118°44'5 9.2
2018-Jul-08 07:00N 33°36' W 118°50'5 9.1
2018-Jul-08 06:30N 33°36' W 118°55'5 9.3
2018-Jul-08 06:00N 33°36' W 119°01'5 9.3
2018-Jul-08 05:30N 33°36' W 119°06'5 9.4
2018-Jul-08 05:00N 33°36' W 119°12'5 9.3
2018-Jul-08 04:30N 33°36' W 119°18'5 9.4
2018-Jul-08 04:00N 33°37' W 119°23'4 9.0
2018-Jul-08 03:30N 33°37' W 119°28'5 9.2
2018-Jul-08 02:58N 33°37' W 119°35'4 8.7
2018-Jul-08 02:30N 33°36' W 119°39'4 8.6
2018-Jul-08 02:00N 33°37' W 119°45'4 9.1
2018-Jul-08 01:30N 33°37' W 119°50'5 9.2
2018-Jul-08 01:00N 33°37' W 119°55'4 9.0
2018-Jul-08 00:30N 33°37' W 120°01'5 9.2
2018-Jul-08 00:00N 33°37' W 120°06'4 9.0
2018-Jul-07 23:30N 33°37' W 120°12'5 9.1
2018-Jul-07 23:00N 33°37' W 120°17'5 9.2
2018-Jul-07 22:30N 33°37' W 120°23'4 9.0
2018-Jul-07 22:00N 33°37' W 120°28'5 9.0
2018-Jul-07 21:30N 33°37' W 120°34'5 9.3
2018-Jul-07 21:00N 33°37' W 120°39'5 9.1
2018-Jul-07 20:30N 33°37' W 120°45'5 9.3
2018-Jul-07 20:00N 33°37' W 120°50'5 9.1
2018-Jul-07 19:30N 33°38' W 120°56'4 8.8
2018-Jul-07 19:00N 33°38' W 121°01'612.9
2018-Jul-07 18:30N 33°37' W 121°09'815.2
2018-Jul-07 18:01N 33°37' W 121°18'815.3
2018-Jul-07 17:30N 33°37' W 121°27'815.9
2018-Jul-07 17:00N 33°37' W 121°36'815.7
2018-Jul-07 16:31N 33°37' W 121°46'815.6
2018-Jul-07 16:01N 33°38' W 121°55'815.5
2018-Jul-07 15:31N 33°37' W 122°05'815.6
2018-Jul-07 15:01N 33°37' W 122°14'815.5
2018-Jul-07 14:31N 33°37' W 122°23'815.7
2018-Jul-07 14:00N 33°37' W 122°33'815.5
2018-Jul-07 13:31N 33°37' W 122°42'815.5
2018-Jul-07 13:00N 33°37' W 122°51'815.6
2018-Jul-07 12:31N 33°37' W 123°01'815.5
2018-Jul-07 12:00N 33°37' W 123°10'815.4
2018-Jul-07 11:31N 33°37' W 123°19'815.1
2018-Jul-07 11:00N 33°37' W 123°28'815.1
2018-Jul-07 10:31N 33°37' W 123°37'815.3
2018-Jul-07 10:01N 33°37' W 123°47'815.5
2018-Jul-07 09:30N 33°37' W 123°56'815.4
2018-Jul-07 09:01N 33°37' W 124°05'815.2
2018-Jul-07 08:30N 33°37' W 124°14'815.1
2018-Jul-07 08:00N 33°37' W 124°24'815.9
2018-Jul-07 07:30N 33°40' W 124°33'918.1
2018-Jul-07 07:01N 33°44' W 124°42'918.2
2018-Jul-07 06:30N 33°48' W 124°52'918.1
2018-Jul-07 06:01N 33°52' W 125°02'918.5
2018-Jul-07 05:30N 33°56' W 125°12'918.5
2018-Jul-07 05:00N 34°00' W 125°22'1118.6
2018-Jul-07 04:23N 34°05' W 125°34'718.8
2018-Jul-07 04:00N 34°09' W 125°42'918.5
2018-Jul-07 03:30N 34°13' W 125°52'1018.4
2018-Jul-07 02:59N 34°17' W 126°03'1318.6
2018-Jul-07 02:16N 34°23' W 126°17'518.7
2018-Jul-07 02:00N 34°25' W 126°23'918.7
2018-Jul-07 01:30N 34°29' W 126°33'918.4
2018-Jul-07 01:00N 34°33' W 126°43'918.4
2018-Jul-07 00:30N 34°37' W 126°53'918.4
2018-Jul-07 00:00N 34°40' W 127°03'1118.7
2018-Jul-06 23:27N 34°45' W 127°15'3418.4
2018-Jul-06 21:36N 34°59' W 127°52'518.5
2018-Jul-06 21:19N 35°02' W 127°58'2418.0
2018-Jul-06 20:00N 35°12' W 128°24'29418.4 090 / 71027.1 5.4 18.0 18.0
2018-Jul-06 04:00N 37°06' W 134°00'13719.6 300 / 81025.0 5.4 17.0 18.0
2018-Jul-05 21:00N 37°54' W 136°42'   340 / 181024.0 5.4 17.0 19.0

Dump ship's entire track history